Time;durP1;ratioP1;P1;durP2;ratioP2;P2;SDS_P1;SDS_P2;PMS_P1;PMS_P2;Temp;Humidity;BMP_temperature;BMP_pressure;BME280_temperature;BME280_humidity;BME280_pressure;Samples;Min_cycle;Max_cycle;Signal;HPM_P1;HPM_P2
2022/11/17 00:00:40;;;;;;;17.30;12.67;;;5.80;99.90;6.80;95420.00;;;;5048923;28;20248;-69
2022/11/17 00:03:29;;;;;;;23.60;13.20;;;5.80;99.90;6.70;95420.00;;;;5046351;28;20224;-69
2022/11/17 00:06:20;;;;;;;18.50;12.57;;;5.80;99.90;6.50;95438.00;;;;5036381;28;20224;-69
2022/11/17 00:09:16;;;;;;;26.47;13.60;;;5.70;99.90;6.50;95444.00;;;;5042966;28;20209;-68
2022/11/17 00:15:12;;;;;;;22.27;12.87;;;5.70;99.90;6.70;95462.00;;;;5044932;28;20224;-69
2022/11/17 00:21:20;;;;;;;19.13;11.93;;;5.70;99.90;7.00;95470.00;;;;4981331;28;20214;-69
2022/11/17 00:24:09;;;;;;;22.80;13.00;;;5.40;99.90;7.10;95454.00;;;;5037954;28;20213;-68
2022/11/17 00:27:03;;;;;;;20.17;12.67;;;5.80;99.90;7.20;95463.00;;;;5040562;28;20213;-69
2022/11/17 00:29:52;;;;;;;21.73;12.87;;;5.80;99.90;7.30;95446.00;;;;5048841;28;20265;-69
2022/11/17 00:35:52;;;;;;;22.17;14.63;;;5.90;99.90;7.30;95425.00;;;;5034315;28;20267;-69
2022/11/17 00:38:41;;;;;;;24.93;16.53;;;6.00;99.90;7.30;95435.00;;;;5036704;28;20197;-69
2022/11/17 00:41:30;;;;;;;21.70;14.13;;;6.00;99.90;7.40;95434.00;;;;5046451;28;20203;-69
2022/11/17 00:44:18;;;;;;;24.03;14.23;;;5.90;99.90;7.40;95428.00;;;;5039907;28;20290;-68
2022/11/17 00:47:07;;;;;;;24.63;13.83;;;6.10;99.90;7.20;95424.00;;;;5044961;28;20253;-69
2022/11/17 00:49:57;;;;;;;22.43;14.83;;;6.10;99.90;7.30;95423.00;;;;5043414;28;20848;-69
2022/11/17 00:52:46;;;;;;;21.13;13.03;;;6.10;99.90;7.30;95421.00;;;;5052839;28;20200;-69
2022/11/17 00:55:34;;;;;;;16.13;12.13;;;6.10;99.90;7.20;95411.00;;;;5052756;28;20236;-69
2022/11/17 00:58:23;;;;;;;21.77;12.97;;;6.10;99.90;7.20;95413.00;;;;5041358;28;20212;-69
2022/11/17 01:01:12;;;;;;;20.23;13.17;;;6.10;99.90;7.30;95413.00;;;;5050291;28;20672;-69
2022/11/17 01:04:02;;;;;;;24.57;14.37;;;6.10;99.90;7.30;95400.00;;;;5041146;28;20216;-68
2022/11/17 01:06:52;;;;;;;18.57;12.53;;;6.10;99.90;7.40;95409.00;;;;5051923;28;20215;-69
2022/11/17 01:09:41;;;;;;;25.60;12.87;;;6.20;99.90;7.30;95403.00;;;;5050667;28;20193;-69
2022/11/17 01:12:30;;;;;;;22.83;13.63;;;6.20;99.90;7.40;95396.00;;;;5052069;28;20204;-69
2022/11/17 01:15:19;;;;;;;24.07;14.03;;;6.20;99.90;7.60;95392.00;;;;5051613;28;20282;-69
2022/11/17 01:18:07;;;;;;;21.17;12.73;;;6.30;99.90;7.60;95383.00;;;;5051466;28;20228;-69
2022/11/17 01:20:56;;;;;;;22.83;13.23;;;6.30;99.90;7.40;95378.00;;;;5051623;28;20247;-69
2022/11/17 01:23:47;;;;;;;22.50;13.47;;;6.30;99.90;7.30;95374.00;;;;5051917;28;20221;-69
2022/11/17 01:26:39;;;;;;;16.50;11.77;;;6.30;99.90;7.50;95376.00;;;;5044361;28;20201;-69
2022/11/17 01:29:27;;;;;;;21.37;12.53;;;6.30;99.90;7.70;95368.00;;;;5043085;28;20227;-69
2022/11/17 01:32:16;;;;;;;16.60;11.67;;;6.30;99.90;7.70;95369.00;;;;5051979;28;20303;-70
2022/11/17 01:35:06;;;;;;;16.83;13.17;;;6.30;99.90;7.70;95367.00;;;;5040825;28;20866;-69
2022/11/17 01:37:55;;;;;;;17.57;11.60;;;6.40;99.90;7.80;95367.00;;;;5051363;28;20232;-69
2022/11/17 01:40:45;;;;;;;19.17;10.60;;;6.50;99.90;7.70;95362.00;;;;5051432;28;20262;-69
2022/11/17 01:43:39;;;;;;;15.73;11.13;;;6.40;99.90;7.80;95355.00;;;;5047206;28;20266;-69
2022/11/17 01:46:32;;;;;;;14.10;10.47;;;6.50;99.90;7.70;95356.00;;;;5043116;28;20220;-69
2022/11/17 01:49:25;;;;;;;15.40;11.23;;;6.50;99.90;7.80;95357.00;;;;5048496;28;20201;-69
2022/11/17 01:52:14;;;;;;;15.17;10.30;;;6.60;99.90;7.70;95347.00;;;;5051792;28;20201;-69
2022/11/17 01:55:04;;;;;;;15.87;10.40;;;6.40;99.90;7.60;95349.00;;;;5051179;28;20216;-69
2022/11/17 01:57:59;;;;;;;16.47;11.23;;;6.50;99.90;7.80;95353.00;;;;5051216;28;20220;-69
2022/11/17 02:00:48;;;;;;;14.37;9.20;;;6.50;99.90;7.80;95349.00;;;;5048707;28;20201;-69
2022/11/17 02:03:39;;;;;;;15.87;10.27;;;6.50;99.90;7.90;95343.00;;;;5039565;28;20699;-69
2022/11/17 02:06:33;;;;;;;12.43;9.00;;;6.50;99.90;7.90;95356.00;;;;5050798;28;20224;-69
2022/11/17 02:09:22;;;;;;;13.40;9.10;;;6.50;99.90;7.80;95346.00;;;;5050206;28;20291;-69
2022/11/17 02:12:13;;;;;;;12.57;9.13;;;6.50;99.90;7.80;95333.00;;;;5048220;28;20219;-69
2022/11/17 02:15:06;;;;;;;11.20;9.20;;;6.50;99.90;7.80;95340.00;;;;5044856;28;20274;-69
2022/11/17 02:17:55;;;;;;;10.40;7.93;;;6.50;99.90;7.80;95340.00;;;;5039430;28;20242;-69
2022/11/17 02:21:13;;;;;;;10.50;7.90;;;6.50;99.90;7.80;95332.00;;;;5049727;28;20609;-69
2022/11/17 02:24:36;;;;;;;9.17;7.33;;;6.50;99.90;7.70;95333.00;;;;5050195;28;20267;-69
2022/11/17 02:27:51;;;;;;;10.27;7.80;;;6.50;99.90;7.70;95335.00;;;;5043060;28;20557;-69
2022/11/17 02:30:56;;;;;;;10.10;7.20;;;6.40;99.90;7.60;95331.00;;;;5048112;28;20322;-69
2022/11/17 02:33:54;;;;;;;8.33;6.77;;;6.40;99.90;7.50;95328.00;;;;5050259;28;20208;-69
2022/11/17 02:36:53;;;;;;;9.40;6.70;;;6.40;99.90;7.40;95328.00;;;;5050527;28;20242;-69
2022/11/17 02:39:50;;;;;;;8.30;6.83;;;6.40;99.90;7.40;95333.00;;;;5050675;28;20200;-68
2022/11/17 02:45:56;;;;;;;7.97;5.97;;;6.30;99.90;7.60;95338.00;;;;5038080;28;20228;-68
2022/11/17 02:48:50;;;;;;;7.90;6.03;;;6.40;99.90;7.60;95347.00;;;;5050260;28;20242;-69
2022/11/17 02:51:40;;;;;;;10.40;6.27;;;6.40;99.90;7.40;95331.00;;;;5050215;28;20679;-69
2022/11/17 02:54:31;;;;;;;12.53;6.63;;;6.20;99.90;7.20;95333.00;;;;5050430;28;20212;-69
2022/11/17 02:57:30;;;;;;;5.73;5.13;;;6.20;99.90;7.40;95339.00;;;;5046937;28;20353;-69
2022/11/17 03:00:21;;;;;;;6.50;5.37;;;6.20;99.90;7.50;95339.00;;;;5035918;28;20640;-69
2022/11/17 03:03:27;;;;;;;7.90;5.73;;;7.60;99.90;7.40;95322.00;;;;5048823;28;20313;-69
2022/11/17 03:06:28;;;;;;;6.80;5.03;;;6.20;99.90;7.40;95323.00;;;;5039778;28;20953;-69
2022/11/17 03:09:25;;;;;;;5.87;5.20;;;6.20;99.90;7.50;95316.00;;;;5035532;28;20229;-69
2022/11/17 03:12:22;;;;;;;7.23;6.30;;;6.20;99.90;7.40;95314.00;;;;5048183;28;20322;-68
2022/11/17 03:15:24;;;;;;;10.80;7.27;;;6.20;99.90;7.30;95316.00;;;;5043080;28;20355;-69
2022/11/17 03:18:21;;;;;;;9.33;6.57;;;6.20;99.90;7.10;95313.00;;;;5047794;28;20232;-69
2022/11/17 03:21:18;;;;;;;9.00;5.07;;;6.10;99.90;6.80;95310.00;;;;5049388;28;21184;-69
2022/11/17 03:24:12;;;;;;;6.63;4.63;;;4.00;99.90;7.00;95318.00;;;;5050110;28;20651;-69
2022/11/17 03:27:10;;;;;;;6.57;5.17;;;5.90;99.90;6.90;95310.00;;;;5040068;28;20696;-69
2022/11/17 03:30:03;;;;;;;8.90;5.93;;;5.90;99.90;7.00;95307.00;;;;5045888;28;20282;-69
2022/11/17 03:33:03;;;;;;;6.23;5.17;;;5.90;99.90;6.80;95311.00;;;;5036868;28;20229;-69
2022/11/17 03:36:01;;;;;;;4.73;4.23;;;5.80;99.90;6.50;95305.00;;;;5039545;28;20281;-69
2022/11/17 03:38:54;;;;;;;6.23;4.37;;;5.60;99.90;6.40;95309.00;;;;5048930;28;20205;-69
2022/11/17 03:41:48;;;;;;;6.03;4.93;;;5.70;99.90;6.40;95313.00;;;;5050472;28;20558;-68
2022/11/17 03:44:40;;;;;;;5.37;4.43;;;5.60;99.90;6.30;95324.00;;;;5038729;28;20228;-68
2022/11/17 03:47:31;;;;;;;4.97;4.43;;;5.50;99.90;6.10;95324.00;;;;5043591;28;20212;-69
2022/11/17 03:50:28;;;;;;;5.70;3.67;;;5.40;99.90;6.20;95320.00;;;;5040840;28;20223;-69
2022/11/17 03:53:17;;;;;;;5.90;4.00;;;5.40;99.90;6.30;95331.00;;;;5043614;28;20193;-68
2022/11/17 03:56:19;;;;;;;8.00;5.13;;;5.30;99.90;6.40;95317.00;;;;5048209;28;20301;-67
2022/11/17 03:59:17;;;;;;;5.37;4.03;;;5.30;99.90;6.40;95326.00;;;;5049039;28;20204;-67
2022/11/17 04:02:06;;;;;;;7.00;4.67;;;5.30;99.90;6.30;95330.00;;;;5042474;28;20197;-67
2022/11/17 04:05:07;;;;;;;4.47;3.87;;;5.30;99.90;6.10;95324.00;;;;5044683;28;20455;-68
2022/11/17 04:07:57;;;;;;;6.57;3.60;;;5.20;99.90;6.10;95328.00;;;;5037723;28;20247;-68
2022/11/17 04:16:58;;;;;;;5.73;4.33;;;5.10;99.90;5.80;95319.00;;;;5039588;28;20244;-67
2022/11/17 04:19:47;;;;;;;5.33;3.97;;;5.00;99.90;5.60;95318.00;;;;5035848;28;20256;-69
2022/11/17 04:22:36;;;;;;;4.60;3.67;;;4.90;99.90;5.40;95321.00;;;;5036414;28;20205;-69
2022/11/17 04:28:36;;;;;;;4.63;3.83;;;4.70;99.90;5.40;95321.00;;;;5040419;28;20209;-68
2022/11/17 04:31:28;;;;;;;6.70;4.37;;;4.60;99.90;5.50;95320.00;;;;5048149;28;20215;-69
2022/11/17 04:34:17;;;;;;;6.00;4.43;;;4.60;99.90;5.60;95324.00;;;;5052966;28;20624;-69
2022/11/17 04:37:16;;;;;;;5.53;4.07;;;4.50;99.90;5.40;95318.00;;;;5048746;28;20724;-68
2022/11/17 04:40:06;;;;;;;5.17;3.93;;;4.60;99.90;5.10;95323.00;;;;5051507;28;20193;-69
2022/11/17 04:42:55;;;;;;;4.80;4.30;;;4.50;99.90;5.10;95312.00;;;;5042662;28;20267;-68
2022/11/17 04:45:44;;;;;;;3.80;2.53;;;4.40;99.90;4.90;95303.00;;;;5039348;28;20720;-68
2022/11/17 04:48:32;;;;;;;4.90;2.97;;;4.40;99.90;5.00;95298.00;;;;5040139;28;20205;-68
2022/11/17 04:51:22;;;;;;;5.07;3.00;;;4.40;99.90;5.40;95294.00;;;;5053490;28;20208;-68
2022/11/17 04:54:13;;;;;;;3.30;3.00;;;4.40;99.90;5.50;95299.00;;;;5052004;28;20205;-68
2022/11/17 04:57:02;;;;;;;3.83;3.50;;;4.50;99.90;5.50;95292.00;;;;5045508;28;20233;-68
2022/11/17 04:59:52;;;;;;;4.20;3.60;;;4.50;99.90;5.20;95295.00;;;;5039823;28;20262;-69
2022/11/17 05:02:41;;;;;;;3.57;3.00;;;4.50;99.90;5.40;95294.00;;;;5052437;28;20212;-68
2022/11/17 05:05:29;;;;;;;7.67;3.33;;;4.50;99.90;5.00;95293.00;;;;5045668;28;20262;-68
2022/11/17 05:08:18;;;;;;;3.43;3.00;;;4.50;99.90;5.40;95291.00;;;;5041638;28;20228;-69
2022/11/17 05:14:17;;;;;;;5.70;3.23;;;4.50;99.90;5.40;95296.00;;;;5040622;28;20201;-69
2022/11/17 05:17:08;;;;;;;4.63;3.47;;;4.50;99.90;5.60;95304.00;;;;5039270;28;20208;-69
2022/11/17 05:19:57;;;;;;;5.03;2.83;;;4.50;99.90;5.70;95304.00;;;;5052824;28;20212;-69
2022/11/17 05:26:01;;;;;;;3.03;2.20;;;4.60;99.90;5.30;95303.00;;;;5025692;28;20300;-69
2022/11/17 05:28:50;;;;;;;4.47;2.83;;;4.60;99.90;5.30;95293.00;;;;5045159;28;20583;-69
2022/11/17 05:31:39;;;;;;;4.33;3.30;;;4.50;99.90;5.20;95293.00;;;;5050385;28;20201;-68
2022/11/17 05:34:29;;;;;;;2.97;2.67;;;4.60;99.90;5.10;95293.00;;;;5052066;28;20208;-68
2022/11/17 05:37:18;;;;;;;4.40;3.13;;;4.50;99.90;5.20;95289.00;;;;5042597;28;20197;-69
2022/11/17 05:40:09;;;;;;;4.97;2.33;;;4.50;99.90;5.30;95295.00;;;;5044695;28;20235;-69
2022/11/17 05:42:58;;;;;;;3.53;2.53;;;4.40;99.90;5.30;95291.00;;;;5037153;28;20654;-69
2022/11/17 05:45:47;;;;;;;3.27;2.97;;;4.40;99.90;5.00;95280.00;;;;5043277;28;20289;-69
2022/11/17 05:48:35;;;;;;;3.60;2.80;;;4.40;99.90;5.20;95291.00;;;;5039847;28;20229;-69
2022/11/17 05:51:26;;;;;;;4.77;3.87;;;4.30;99.90;5.10;95293.00;;;;5046375;28;20207;-69
2022/11/17 05:54:14;;;;;;;6.30;5.10;;;4.30;99.90;5.20;95296.00;;;;5050227;28;21459;-69
2022/11/17 05:57:06;;;;;;;4.80;3.23;;;4.30;99.90;5.20;95295.00;;;;5050376;28;20986;-69
2022/11/17 06:00:03;;;;;;;5.73;3.50;;;4.30;99.90;5.20;95293.00;;;;5045413;28;20560;-69
2022/11/17 06:02:58;;;;;;;8.37;6.00;;;4.30;99.90;5.20;95311.00;;;;5041184;28;20216;-69
2022/11/17 06:05:47;;;;;;;5.50;4.10;;;4.30;99.90;5.40;95302.00;;;;5040073;28;20278;-69
2022/11/17 06:08:37;;;;;;;13.23;7.97;;;4.40;99.90;5.30;95307.00;;;;5043214;28;20283;-69
2022/11/17 06:11:26;;;;;;;7.13;6.23;;;4.40;99.90;5.30;95306.00;;;;5043259;28;20813;-69
2022/11/17 06:14:15;;;;;;;11.00;6.67;;;4.60;99.90;5.50;95297.00;;;;5038966;28;20292;-68
2022/11/17 06:17:07;;;;;;;12.10;8.43;;;4.50;99.90;5.70;95304.00;;;;5048603;28;20204;-69
2022/11/17 06:20:01;;;;;;;16.80;10.10;;;4.60;99.90;5.70;95307.00;;;;5045535;28;20203;-69
2022/11/17 06:22:50;;;;;;;8.80;5.73;;;4.60;99.90;5.60;95307.00;;;;5041054;28;20572;-68
2022/11/17 06:25:41;;;;;;;12.27;7.63;;;4.60;99.90;5.50;95302.00;;;;5034561;28;20251;-69
2022/11/17 06:28:31;;;;;;;5.87;4.70;;;4.70;99.90;5.70;95297.00;;;;5041803;28;20319;-69
2022/11/17 06:31:20;;;;;;;7.30;5.93;;;4.70;99.90;6.00;95294.00;;;;5049077;28;20250;-68
2022/11/17 06:34:09;;;;;;;7.70;6.27;;;4.70;99.90;6.00;95287.00;;;;5051793;28;20204;-69
2022/11/17 06:36:58;;;;;;;4.97;4.47;;;4.80;99.90;5.80;95286.00;;;;5047290;28;20193;-69
2022/11/17 06:39:46;;;;;;;9.47;6.90;;;4.80;99.90;5.80;95285.00;;;;5050037;28;20205;-69
2022/11/17 06:45:46;;;;;;;8.97;7.83;;;4.80;99.90;5.70;95279.00;;;;5049342;28;20278;-69
2022/11/17 06:48:35;;;;;;;4.33;2.83;;;4.90;99.90;5.30;95278.00;;;;5033199;28;20310;-70
2022/11/17 06:51:24;;;;;;;4.53;3.73;;;4.70;99.90;5.30;95278.00;;;;5039726;28;20691;-69
2022/11/17 06:54:13;;;;;;;3.50;3.07;;;4.70;99.90;5.30;95297.00;;;;5041225;28;20668;-68
2022/11/17 06:57:02;;;;;;;8.47;3.63;;;4.70;99.90;5.50;95293.00;;;;5045277;28;20578;-67
2022/11/17 06:59:52;;;;;;;4.47;2.93;;;4.80;99.90;5.70;95293.00;;;;5030838;28;20212;-69
2022/11/17 07:02:42;;;;;;;3.53;2.53;;;4.80;99.90;5.70;95286.00;;;;5049865;28;20212;-68
2022/11/17 07:05:31;;;;;;;4.10;3.20;;;4.90;99.90;5.80;95295.00;;;;5045644;28;20254;-67
2022/11/17 07:08:21;;;;;;;3.93;2.80;;;4.90;99.90;5.80;95290.00;;;;5038236;28;20198;-68
2022/11/17 07:11:13;;;;;;;5.00;3.63;;;5.00;99.90;5.40;95293.00;;;;5045050;28;20215;-68
2022/11/17 07:14:02;;;;;;;3.23;2.23;;;4.90;99.90;5.50;95303.00;;;;5046529;28;20201;-69
2022/11/17 07:16:52;;;;;;;3.33;2.80;;;4.90;99.90;5.70;95295.00;;;;5037279;28;20213;-67
2022/11/17 07:19:41;;;;;;;3.40;2.63;;;4.90;99.90;5.90;95291.00;;;;5036639;28;20246;-69
2022/11/17 07:22:29;;;;;;;6.10;3.77;;;5.00;99.90;5.90;95301.00;;;;5040487;28;20204;-67
2022/11/17 07:25:18;;;;;;;4.50;4.03;;;5.00;99.90;6.40;95300.00;;;;5045581;28;20221;-68
2022/11/17 07:28:09;;;;;;;6.10;3.80;;;5.10;99.90;6.50;95295.00;;;;5042428;28;20209;-68
2022/11/17 07:31:02;;;;;;;4.03;3.63;;;5.30;99.90;6.40;95300.00;;;;5044557;28;20200;-68
2022/11/17 07:33:54;;;;;;;4.20;3.37;;;5.30;99.90;6.40;95301.00;;;;5035190;28;20196;-69
2022/11/17 07:36:43;;;;;;;5.20;3.67;;;5.40;99.90;6.40;95293.00;;;;5038733;28;20197;-68
2022/11/17 07:39:32;;;;;;;3.90;3.60;;;5.50;99.90;6.80;95293.00;;;;5039092;28;20205;-67
2022/11/17 07:42:20;;;;;;;6.10;4.10;;;5.60;99.90;6.90;95281.00;;;;5039527;28;20587;-67
2022/11/17 07:45:10;;;;;;;3.50;3.07;;;5.70;99.90;6.60;95287.00;;;;5036142;28;20232;-70
2022/11/17 07:48:01;;;;;;;5.53;3.07;;;5.70;99.90;6.30;95273.00;;;;5041997;28;20668;-70
2022/11/17 07:50:52;;;;;;;3.93;3.00;;;5.60;99.90;6.70;95269.00;;;;5040271;28;20196;-68
2022/11/17 07:53:40;;;;;;;6.70;4.40;;;5.70;99.90;6.70;95267.00;;;;5035185;28;20197;-68
2022/11/17 07:56:29;;;;;;;7.13;3.73;;;5.70;99.90;6.40;95285.00;;;;5044456;28;20238;-67
2022/11/17 07:59:18;;;;;;;4.80;3.53;;;5.70;99.90;6.80;95288.00;;;;5050271;28;20578;-68
2022/11/17 08:02:09;;;;;;;4.87;4.37;;;5.80;99.90;7.00;95295.00;;;;5042907;28;20209;-67
2022/11/17 08:04:58;;;;;;;6.80;4.77;;;5.90;99.90;6.90;95285.00;;;;5052733;28;20220;-68
2022/11/17 08:07:55;;;;;;;5.33;3.87;;;6.00;99.90;7.30;95291.00;;;;5044012;28;20204;-68
2022/11/17 08:10:44;;;;;;;6.07;4.63;;;6.10;99.90;7.60;95292.00;;;;5044555;28;20199;-68
2022/11/17 08:13:33;;;;;;;7.67;6.30;;;6.30;99.90;7.50;95301.00;;;;5049652;28;20201;-67
2022/11/17 08:16:24;;;;;;;9.30;4.07;;;6.40;99.90;7.40;95297.00;;;;5041350;28;20224;-67
2022/11/17 08:19:13;;;;;;;5.50;4.33;;;6.40;99.90;7.80;95285.00;;;;5047444;28;20303;-68
2022/11/17 08:22:02;;;;;;;6.67;4.07;;;6.40;99.90;7.70;95285.00;;;;5040823;28;20200;-68
2022/11/17 08:24:52;;;;;;;4.93;4.33;;;6.50;99.90;7.50;95291.00;;;;5038697;28;20704;-68
2022/11/17 08:27:41;;;;;;;7.73;5.30;;;6.50;99.90;7.60;95288.00;;;;5047528;28;20216;-69
2022/11/17 08:30:33;;;;;;;5.57;4.50;;;6.50;99.90;7.60;95289.00;;;;5044316;28;20205;-68
2022/11/17 08:33:22;;;;;;;6.33;5.17;;;6.60;99.90;8.10;95274.00;;;;5034398;28;20202;-68
2022/11/17 08:36:11;;;;;;;6.00;4.60;;;6.70;99.90;8.30;95262.00;;;;5045821;28;20232;-68
2022/11/17 08:38:59;;;;;;;6.17;4.80;;;6.90;99.90;8.10;95268.00;;;;5044010;28;20197;-68
2022/11/17 08:41:51;;;;;;;6.30;5.53;;;6.90;99.90;7.90;95265.00;;;;5039658;28;20204;-68
2022/11/17 08:44:40;;;;;;;7.43;5.40;;;6.90;99.90;8.10;95261.00;;;;5049689;28;20220;-68
2022/11/17 08:47:30;;;;;;;6.87;5.53;;;7.00;99.90;8.30;95272.00;;;;5044011;28;20278;-68
2022/11/17 08:50:19;;;;;;;7.97;5.93;;;7.00;99.90;8.30;95267.00;;;;5043891;28;20212;-68
2022/11/17 08:53:14;;;;;;;11.10;6.27;;;7.10;99.90;8.30;95263.00;;;;5038492;28;20197;-69
2022/11/17 08:56:07;;;;;;;10.80;6.87;;;7.10;99.90;8.30;95268.00;;;;5046586;28;20221;-68
2022/11/17 08:58:57;;;;;;;12.10;6.93;;;7.20;99.90;8.50;95274.00;;;;5052053;28;20703;-68
2022/11/17 09:01:46;;;;;;;7.83;5.83;;;7.20;99.90;8.70;95267.00;;;;5046676;28;20576;-68
2022/11/17 09:04:35;;;;;;;8.27;5.97;;;7.30;99.90;8.70;95271.00;;;;5038746;28;20232;-68
2022/11/17 09:07:23;;;;;;;8.63;6.43;;;7.40;99.90;8.90;95258.00;;;;5041226;28;20266;-68
2022/11/17 09:10:12;;;;;;;9.33;6.33;;;7.50;99.90;8.80;95261.00;;;;5044052;28;20622;-68
2022/11/17 09:13:01;;;;;;;7.73;6.13;;;7.60;99.90;8.70;95271.00;;;;5046169;28;20199;-68
2022/11/17 09:15:51;;;;;;;9.17;6.40;;;7.60;99.90;8.60;95268.00;;;;5032844;28;20232;-68
2022/11/17 09:18:41;;;;;;;8.53;6.80;;;7.60;99.90;8.90;95272.00;;;;5039223;28;20625;-68
2022/11/17 09:21:31;;;;;;;9.60;7.07;;;7.60;99.90;9.00;95270.00;;;;5044345;28;20569;-68
2022/11/17 09:24:20;;;;;;;10.27;7.67;;;7.80;99.90;9.10;95278.00;;;;5040235;28;20565;-68
2022/11/17 09:27:09;;;;;;;9.40;7.40;;;7.80;99.90;9.30;95280.00;;;;5038255;28;20221;-68
2022/11/17 09:29:57;;;;;;;7.43;5.83;;;7.90;99.90;9.40;95277.00;;;;5044539;28;20200;-68
2022/11/17 09:32:48;;;;;;;7.93;6.67;;;8.00;99.90;9.30;95272.00;;;;5050996;28;20211;-68
2022/11/17 09:35:36;;;;;;;9.50;6.63;;;8.00;99.90;9.00;95282.00;;;;5038136;28;20295;-69
2022/11/17 09:38:25;;;;;;;7.60;6.87;;;8.00;99.90;9.30;95281.00;;;;5037048;28;20573;-68
2022/11/17 09:41:36;;;;;;;7.83;6.37;;;8.00;99.90;9.40;95281.00;;;;5048728;28;20702;-68
2022/11/17 09:44:38;;;;;;;9.47;6.93;;;8.30;99.90;9.50;95274.00;;;;5044750;28;20192;-68
2022/11/17 09:47:36;;;;;;;7.77;6.30;;;8.20;99.90;9.70;95280.00;;;;5047481;28;20557;-68
2022/11/17 09:50:32;;;;;;;7.53;5.80;;;8.30;99.90;9.70;95290.00;;;;5051028;28;20656;-68
2022/11/17 09:53:28;;;;;;;6.93;6.20;;;8.30;99.90;9.90;95293.00;;;;5037527;28;20205;-68
2022/11/17 09:56:17;;;;;;;9.20;7.47;;;8.40;99.90;10.40;95297.00;;;;5048013;28;20734;-68
2022/11/17 09:59:10;;;;;;;9.13;6.50;;;8.60;99.90;10.10;95288.00;;;;5045494;28;20216;-68
2022/11/17 10:01:59;;;;;;;7.57;5.60;;;8.70;99.90;10.20;95275.00;;;;5044263;28;20208;-68
2022/11/17 10:04:48;;;;;;;7.27;5.80;;;8.80;99.90;10.20;95274.00;;;;5046082;28;20217;-68
2022/11/17 10:07:45;;;;;;;6.63;4.90;;;8.90;99.90;10.30;95278.00;;;;5032428;28;20225;-68
2022/11/17 10:10:45;;;;;;;7.00;5.03;;;9.00;99.90;10.30;95283.00;;;;5039529;28;20224;-68
2022/11/17 10:13:36;;;;;;;7.23;5.13;;;9.00;99.90;10.50;95281.00;;;;5038174;28;20201;-68
2022/11/17 10:16:25;;;;;;;6.67;5.63;;;9.10;99.90;10.40;95282.00;;;;5039046;28;20229;-68
2022/11/17 10:19:17;;;;;;;5.57;4.70;;;10.00;99.90;10.60;95278.00;;;;5046944;28;20200;-68
2022/11/17 10:22:22;;;;;;;5.17;4.20;;;9.30;99.90;11.10;95268.00;;;;5043001;28;20558;-68
2022/11/17 10:25:36;;;;;;;6.70;5.03;;;9.40;99.90;10.90;95256.00;;;;5048197;28;20232;-68
2022/11/17 10:28:27;;;;;;;5.27;4.53;;;9.60;99.90;11.10;95265.00;;;;5038716;28;20605;-68
2022/11/17 10:31:18;;;;;;;5.77;5.17;;;9.80;99.90;11.20;95267.00;;;;5042001;28;20200;-68
2022/11/17 10:34:10;;;;;;;9.17;5.07;;;9.90;99.90;12.20;95249.00;;;;5035308;28;20208;-68
2022/11/17 10:37:07;;;;;;;4.17;3.77;;;10.30;99.90;11.90;95255.00;;;;5046096;28;20232;-68
2022/11/17 10:40:15;;;;;;;4.27;3.87;;;10.80;99.90;11.60;95251.00;;;;5045655;28;20203;-68
2022/11/17 10:43:23;;;;;;;4.07;3.67;;;11.00;99.90;12.70;95257.00;;;;5046404;28;20196;-68
2022/11/17 10:46:16;;;;;;;5.03;4.20;;;11.40;99.90;13.40;95226.00;;;;5044883;28;20967;-68
2022/11/17 10:49:25;;;;;;;4.60;3.77;;;12.00;99.90;13.30;95222.00;;;;5034830;28;20628;-68
2022/11/17 10:52:18;;;;;;;3.90;3.23;;;12.70;99.90;14.30;95229.00;;;;5039783;28;20693;-67
2022/11/17 10:55:41;;;;;;;3.40;3.07;;;13.40;99.90;13.80;95267.00;;;;5036631;28;20224;-68
2022/11/17 10:58:33;;;;;;;4.10;3.73;;;13.50;99.90;13.60;95258.00;;;;5046536;28;20201;-68
2022/11/17 11:01:33;;;;;;;4.80;3.63;;;13.20;99.90;13.20;95255.00;;;;5041920;28;20215;-68
2022/11/17 11:04:32;;;;;;;3.83;3.00;;;12.80;99.90;12.70;95249.00;;;;5039368;28;20204;-68
2022/11/17 11:07:23;;;;;;;3.97;3.10;;;12.30;99.90;12.50;95250.00;;;;5045021;28;20228;-68
2022/11/17 11:10:18;;;;;;;4.07;3.13;;;12.00;99.90;12.50;95251.00;;;;5038577;28;20685;-68
2022/11/17 11:13:17;;;;;;;3.50;2.60;;;11.70;99.90;12.20;95243.00;;;;5047312;28;20205;-68
2022/11/17 11:16:11;;;;;;;3.27;2.97;;;11.50;99.90;12.50;95240.00;;;;5040893;28;20219;-68
2022/11/17 11:18:59;;;;;;;2.83;2.63;;;11.30;99.90;13.00;95231.00;;;;5042728;28;20204;-68
2022/11/17 11:22:30;;;;;;;4.80;3.17;;;11.40;99.90;12.70;95239.00;;;;5041325;28;20560;-68
2022/11/17 11:25:34;;;;;;;3.33;3.03;;;11.40;99.90;13.20;95225.00;;;;5044833;28;20220;-68
2022/11/17 11:28:38;;;;;;;3.37;3.07;;;11.50;99.90;14.30;95214.00;;;;5035230;28;20223;-68
2022/11/17 11:31:45;;;;;;;3.33;2.40;;;12.00;99.90;14.60;95219.00;;;;5038146;28;20932;-68
2022/11/17 11:35:07;;;;;;;2.97;2.40;;;12.70;99.90;14.80;95210.00;;;;5037195;28;20227;-68
2022/11/17 11:38:31;;;;;;;2.57;2.37;;;13.30;99.90;14.80;95201.00;;;;5039989;28;20211;-68
2022/11/17 11:41:37;;;;;;;2.83;2.63;;;13.60;99.90;15.60;95194.00;;;;5035539;28;20586;-69
2022/11/17 11:44:41;;;;;;;3.60;2.23;;;14.00;99.90;15.80;95203.00;;;;5044091;28;20282;-69
2022/11/17 11:47:51;;;;;;;2.03;1.90;;;14.50;99.90;15.90;95204.00;;;;5045610;28;20220;-69
2022/11/17 11:50:51;;;;;;;2.23;1.80;;;14.80;99.90;15.80;95204.00;;;;5034974;28;20824;-68
2022/11/17 11:53:48;;;;;;;2.50;2.13;;;15.00;99.90;16.10;95197.00;;;;5044044;28;20200;-68
2022/11/17 11:56:40;;;;;;;1.80;1.70;;;15.10;99.90;15.40;95195.00;;;;5043945;28;20227;-69
2022/11/17 11:59:39;;;;;;;3.37;2.03;;;14.90;99.90;16.30;95192.00;;;;5032353;28;20197;-69
2022/11/17 12:02:39;;;;;;;3.10;2.03;;;15.10;99.90;17.40;95203.00;;;;5047396;28;20259;-68
2022/11/17 12:05:39;;;;;;;2.53;1.80;;;15.70;99.90;18.10;95208.00;;;;5046344;28;20224;-68
2022/11/17 12:08:37;;;;;;;2.77;1.90;;;16.20;99.90;17.90;95205.00;;;;5047571;28;20278;-68
2022/11/17 12:14:35;;;;;;;2.50;1.87;;;16.60;99.90;19.60;95184.00;;;;5040360;28;20313;-68
2022/11/17 12:17:25;;;;;;;2.60;1.73;;;17.20;98.80;20.10;95193.00;;;;5042893;28;20205;-68
2022/11/17 12:20:57;;;;;;;2.00;1.80;;;17.80;97.10;21.50;95198.00;;;;5037429;28;20208;-68
2022/11/17 12:24:13;;;;;;;2.40;1.50;;;18.60;95.90;21.60;95185.00;;;;5047499;28;20204;-69
2022/11/17 12:27:31;;;;;;;1.87;1.60;;;19.20;93.50;21.70;95191.00;;;;5035590;28;20198;-68
2022/11/17 12:30:52;;;;;;;;;;;19.50;92.50;22.20;95202.00;;;;5036455;28;20056;-69
2022/11/17 12:34:23;;;;;;;2.85;1.80;;;19.90;91.00;22.80;95196.00;;;;5035569;28;20408;-68
2022/11/17 12:37:25;;;;;;;2.00;1.80;;;20.60;87.70;22.90;95191.00;;;;5038947;28;20202;-68
2022/11/17 12:40:45;;;;;;;4.07;1.93;;;21.10;85.50;23.40;95194.00;;;;5040351;28;20221;-68
2022/11/17 12:43:34;;;;;;;1.43;1.30;;;21.20;83.80;23.20;95194.00;;;;5038319;28;20199;-68
2022/11/17 12:46:26;;;;;;;2.03;1.83;;;21.60;81.30;23.60;95195.00;;;;5048387;28;20221;-69
2022/11/17 12:49:27;;;;;;;1.63;1.30;;;21.90;78.70;21.60;95193.00;;;;5044837;28;20220;-69
2022/11/17 12:52:24;;;;;;;2.97;2.07;;;22.00;74.00;23.10;95188.00;;;;5036940;28;20737;-68
2022/11/17 12:55:19;;;;;;;6.80;4.60;;;21.70;76.30;24.10;95203.00;;;;5044303;28;20705;-66
2022/11/17 12:58:19;;;;;;;8.47;5.57;;;22.10;77.40;23.90;95211.00;;;;5041044;28;20223;-66
2022/11/17 13:01:17;;;;;;;9.47;5.57;;;22.50;75.90;24.10;95219.00;;;;5049439;28;20196;-66
2022/11/17 13:04:12;;;;;;;8.63;5.83;;;22.70;75.00;23.80;95224.00;;;;5040843;28;20215;-66
2022/11/17 13:07:04;;;;;;;7.23;5.73;;;22.90;73.30;23.40;95224.00;;;;5049310;28;20192;-66
2022/11/17 13:09:56;;;;;;;7.67;6.13;;;22.70;72.30;21.80;95253.00;;;;5036311;28;20198;-66
2022/11/17 13:12:47;;;;;;;17.77;8.63;;;22.10;72.00;21.40;95249.00;;;;5041477;28;20207;-69
2022/11/17 13:15:36;;;;;;;12.57;8.30;;;21.40;72.80;20.80;95282.00;;;;5049835;28;20230;-69
2022/11/17 13:18:31;;;;;;;10.90;9.00;;;20.70;75.10;18.70;95284.00;;;;5048599;28;20893;-70
2022/11/17 13:21:30;;;;;;;12.23;9.07;;;19.60;76.10;16.90;95286.00;;;;5041935;28;20609;-69
2022/11/17 13:24:31;;;;;;;12.53;8.97;;;17.20;83.80;16.10;95269.00;;;;5043281;28;20204;-68
2022/11/17 13:27:25;;;;;;;10.87;8.17;;;16.90;83.50;17.70;95246.00;;;;5037877;28;20204;-69
2022/11/17 13:30:18;;;;;;;15.07;7.80;;;16.50;86.80;18.20;95293.00;;;;5041661;28;20205;-69
2022/11/17 13:33:20;;;;;;;12.37;7.73;;;16.50;88.20;17.20;95301.00;;;;5047871;28;20215;-68
2022/11/17 13:36:18;;;;;;;16.90;9.03;;;16.30;88.50;16.70;95288.00;;;;5044242;28;20208;-68